createdAt,value
2023-01-06T02:48:39.359Z,8.37
2023-01-06T02:52:57.472Z,8.34
2023-01-06T04:21:30.427Z,7.54
2023-01-06T05:39:49.015Z,7.70
2023-01-06T05:52:35.743Z,7.71
2023-01-06T06:32:26.224Z,7.82
2023-01-06T06:35:46.341Z,7.83
2023-01-06T06:43:19.773Z,7.75
2023-01-06T06:46:28.183Z,7.47
2023-01-06T06:57:39.176Z,7.62
2023-01-06T07:00:54.240Z,7.61
2023-01-06T07:12:08.092Z,7.60
2023-01-06T07:15:28.917Z,7.54
2023-01-06T07:18:40.005Z,7.56
2023-01-06T07:21:55.148Z,7.36
2023-01-06T07:25:55.257Z,7.68
2023-01-06T07:29:25.126Z,7.66
2023-01-06T07:32:33.740Z,7.69
2023-01-06T07:35:50.457Z,7.77
2023-01-06T07:38:58.804Z,7.77
2023-01-06T07:42:16.189Z,7.60
2023-01-06T07:46:02.408Z,7.92
2023-01-06T07:49:35.164Z,7.94
2023-01-06T07:52:37.108Z,7.96
2023-01-06T07:56:12.404Z,7.97
2023-01-06T07:59:30.428Z,8.11
2023-01-06T08:06:31.198Z,8.25
2023-01-06T08:09:43.049Z,8.24
2023-01-06T08:13:16.909Z,8.39
2023-01-06T08:16:29.288Z,8.45
2023-01-06T08:19:37.820Z,8.56
2023-01-06T08:22:52.166Z,8.60
2023-01-06T08:26:11.184Z,8.57
2023-01-06T08:29:29.229Z,8.33
2023-01-06T08:32:33.722Z,8.71
2023-01-06T08:35:48.239Z,8.72
2023-01-06T08:38:58.197Z,8.85
2023-01-06T08:42:06.968Z,8.98
2023-01-06T08:45:34.192Z,8.77
2023-01-06T08:48:42.807Z,9.06
2023-01-06T08:56:06.163Z,8.91
2023-01-06T08:59:16.871Z,8.95
2023-01-06T09:02:31.199Z,9.28
2023-01-06T09:05:48.893Z,9.03
2023-01-06T09:08:51.018Z,8.55
2023-01-06T09:12:07.532Z,8.75
2023-01-06T09:15:30.824Z,8.72
2023-01-06T09:18:48.201Z,8.73
2023-01-06T09:26:06.381Z,8.74
2023-01-06T09:29:15.285Z,8.44
2023-01-06T09:32:37.164Z,8.95
2023-01-06T09:35:53.293Z,9.05
2023-01-06T09:39:01.750Z,9.04
2023-01-06T09:42:47.186Z,8.93
2023-01-06T09:46:00.290Z,9.14
2023-01-06T09:49:30.161Z,9.15
2023-01-06T09:52:44.223Z,8.66
2023-01-06T09:56:16.713Z,9.22
2023-01-06T09:59:53.240Z,9.03
2023-01-06T10:03:02.101Z,9.29
2023-01-06T10:06:40.220Z,8.85
2023-01-06T10:10:18.388Z,8.99
2023-01-06T10:46:07.308Z,9.36
2023-01-06T10:49:51.624Z,9.41
2023-01-06T11:31:20.298Z,9.70
2023-01-06T11:56:10.483Z,9.87
2023-01-06T12:12:02.356Z,9.89
2023-01-06T13:09:31.246Z,10.06
2023-01-06T13:26:02.719Z,9.46
2023-01-06T13:29:44.340Z,9.86
2023-01-06T13:33:18.387Z,9.76
2023-01-06T13:37:32.404Z,9.72
2023-01-06T13:40:50.027Z,9.63
2023-01-06T13:48:53.905Z,9.54
2023-01-06T13:52:14.485Z,9.64
2023-01-06T13:55:43.234Z,9.72
2023-01-06T13:59:17.352Z,9.84
2023-01-06T14:06:51.272Z,9.98
2023-01-06T14:10:30.024Z,9.75
2023-01-06T14:18:10.341Z,9.87
2023-01-06T14:21:25.049Z,9.79
2023-01-06T14:40:32.516Z,9.25
2023-01-06T14:52:36.309Z,9.21
2023-01-06T14:56:11.385Z,9.08
2023-01-06T14:59:23.329Z,9.20
2023-01-06T15:02:34.490Z,9.14
2023-01-06T15:05:52.861Z,9.13
2023-01-06T15:17:01.649Z,8.62
2023-01-06T15:21:06.713Z,8.46
2023-01-06T15:28:22.378Z,8.09
2023-01-06T15:39:37.401Z,8.04
2023-01-06T15:42:51.507Z,7.81
2023-01-06T15:57:48.450Z,7.71
2023-01-06T16:01:21.013Z,7.78
2023-01-06T16:12:21.488Z,7.48
2023-01-06T16:16:55.621Z,7.35
2023-01-06T16:20:32.380Z,7.28
2023-01-06T16:28:02.339Z,7.21
2023-01-06T16:31:46.083Z,7.05
2023-01-06T16:39:36.459Z,7.23
2023-01-06T16:43:02.911Z,7.20
2023-01-06T17:09:20.451Z,7.31
2023-01-06T17:21:37.146Z,7.12
2023-01-06T17:41:00.810Z,7.45
2023-01-06T18:16:02.339Z,7.69
2023-01-06T18:19:30.455Z,7.68
2023-01-06T18:23:07.508Z,7.68
2023-01-06T18:26:45.369Z,7.65
2023-01-06T18:30:59.362Z,7.23
2023-01-06T18:38:09.680Z,7.83
2023-01-06T18:42:00.043Z,7.78
2023-01-06T20:12:21.931Z,7.49
2023-01-06T20:16:19.854Z,7.44
2023-01-06T20:19:45.438Z,7.45
2023-01-06T20:27:27.890Z,6.92
2023-01-06T20:48:29.820Z,7.93
2023-01-06T20:51:38.780Z,7.20
2023-01-06T20:55:46.881Z,7.24
2023-01-06T20:59:21.796Z,7.22
2023-01-06T21:02:23.760Z,7.20
2023-01-06T21:05:41.843Z,7.18
2023-01-06T21:08:52.384Z,7.17
2023-01-06T21:12:12.898Z,7.15
2023-01-06T21:15:25.907Z,7.07
2023-01-06T21:18:41.814Z,7.12
2023-01-06T21:21:43.712Z,7.05
2023-01-06T21:25:32.734Z,6.99
2023-01-06T21:28:38.507Z,7.06
2023-01-06T21:31:52.964Z,7.04
2023-01-06T21:35:27.110Z,6.97
2023-01-06T21:38:39.861Z,6.97
2023-01-06T21:41:48.556Z,6.97
2023-01-06T21:45:27.890Z,6.76
2023-01-06T21:48:47.852Z,7.08
2023-01-06T21:51:59.761Z,7.11
2023-01-06T21:55:54.870Z,7.07
2023-01-06T21:59:19.847Z,7.05
2023-01-06T22:02:28.023Z,7.16
2023-01-06T22:05:42.863Z,7.12
2023-01-06T22:08:57.855Z,7.09
2023-01-06T22:12:13.653Z,6.99
2023-01-06T22:15:36.889Z,6.82
2023-01-06T22:18:45.569Z,6.75
2023-01-06T22:21:53.859Z,6.72
2023-01-06T22:25:44.031Z,6.68
2023-01-06T22:28:59.046Z,6.73
2023-01-06T22:32:07.341Z,6.79
2023-01-06T22:35:40.888Z,6.72
2023-01-06T22:38:42.688Z,6.57
2023-01-06T22:42:00.856Z,6.47
2023-01-06T22:45:41.567Z,6.11
2023-01-06T22:48:56.830Z,6.39
2023-01-06T22:52:08.496Z,6.27
2023-01-06T22:55:28.833Z,6.17
2023-01-06T22:58:32.371Z,6.05
2023-01-06T23:01:46.974Z,6.01
2023-01-06T23:09:09.196Z,5.96
2023-01-06T23:12:17.425Z,5.87
2023-01-06T23:15:34.904Z,5.80
2023-01-06T23:18:45.885Z,5.82
2023-01-06T23:21:54.407Z,5.78
2023-01-06T23:29:01.400Z,5.80
